Wilkinson, Indiana
Current Conditions -  °F | °C
As of 7:55 PM on Saturday 25 Oct 2014 (Local Time) from KMQJ Reporting Station
Clear Clear  
Wind Chill: 61°   Ceiling: Unl
Heat Index: 61°   Visibility: 10mi
Dew Point: 36°   Wind: 8mph
Humidity: 39%   Direction: 270°W
Pressure: 29.93"   Gusts: NA
Location:  39.89°N, 85.61°W
Report Text: KMQJ 252355Z AUTO 27007KT 10SM CLR 16/02 A2993 RMK AO1
Loading
Personal Weather Stations






























Interactive Weather Map New forecast layout! Learn more

10-Day Weather Forecast

Advertisements
Track Severe Weather on mobile